Time;durP1;ratioP1;P1;durP2;ratioP2;P2;SDS_P1;SDS_P2;PMS_P1;PMS_P2;Temp;Humidity;BMP_temperature;BMP_pressure;BME280_temperature;BME280_humidity;BME280_pressure;Samples;Min_cycle;Max_cycle;Signal;HPM_P1;HPM_P2
2021/08/17 00:00:42;;;;;;;1.13;1.00;;;;;;;;;;5075547;28;20190;-46
2021/08/17 00:03:08;;;;;;;1.75;1.38;;;;;;;;;;5076139;28;20190;-46
2021/08/17 00:05:34;;;;;;;1.20;1.10;;;;;;;;;;5077718;28;20186;-46
2021/08/17 00:08:02;;;;;;;0.90;0.85;;;;;;;;;;5084482;28;20208;-46
2021/08/17 00:10:28;;;;;;;1.23;1.13;;;;;;;;;;5078466;28;20182;-46
2021/08/17 00:12:54;;;;;;;1.15;1.05;;;;;;;;;;5075769;28;20170;-46
2021/08/17 00:15:20;;;;;;;1.25;1.05;;;;;;;;;;5075836;28;20198;-46
2021/08/17 00:17:46;;;;;;;1.27;0.90;;;;;;;;;;5083224;28;20193;-46
2021/08/17 00:20:13;;;;;;;1.20;0.98;;;;;;;;;;5075605;28;20185;-46
2021/08/17 00:22:41;;;;;;;1.30;0.90;;;;;;;;;;5081932;28;20178;-46
2021/08/17 00:25:08;;;;;;;1.63;1.00;;;;;;;;;;5081193;28;20171;-46
2021/08/17 00:27:35;;;;;;;1.50;0.90;;;;;;;;;;5075053;28;20687;-46
2021/08/17 00:30:01;;;;;;;1.38;1.10;;;;;;;;;;5075392;28;20454;-46
2021/08/17 00:32:27;;;;;;;1.10;0.95;;;;;;;;;;5076776;28;20167;-46
2021/08/17 00:34:53;;;;;;;1.27;1.00;;;;;;;;;;5095494;28;20169;-46
2021/08/17 00:37:19;;;;;;;2.28;1.30;;;;;;;;;;5089661;28;20208;-46
2021/08/17 00:39:45;;;;;;;1.05;0.95;;;;;;;;;;5083751;28;20206;-46
2021/08/17 00:42:11;;;;;;;1.17;1.00;;;;;;;;;;5085678;28;20269;-46
2021/08/17 00:44:37;;;;;;;1.33;1.13;;;;;;;;;;5077013;28;20178;-46
2021/08/17 00:47:04;;;;;;;1.38;1.20;;;;;;;;;;5082936;28;20213;-46
2021/08/17 00:49:30;;;;;;;1.27;0.88;;;;;;;;;;5094772;28;20967;-46
2021/08/17 00:51:58;;;;;;;1.25;1.15;;;;;;;;;;5091477;28;20182;-46
2021/08/17 00:54:24;;;;;;;1.15;0.90;;;;;;;;;;5086322;28;20249;-46
2021/08/17 00:56:52;;;;;;;1.30;0.93;;;;;;;;;;5075091;28;20181;-46
2021/08/17 00:59:18;;;;;;;1.10;1.00;;;;;;;;;;5074595;28;20201;-46
2021/08/17 01:01:44;;;;;;;1.67;1.15;;;;;;;;;;5082281;28;20347;-46
2021/08/17 01:04:10;;;;;;;1.00;0.90;;;;;;;;;;5094825;28;20620;-46
2021/08/17 01:06:37;;;;;;;0.95;0.90;;;;;;;;;;5082155;28;20616;-46
2021/08/17 01:09:03;;;;;;;1.30;1.10;;;;;;;;;;5085481;28;20269;-46
2021/08/17 01:11:30;;;;;;;0.85;0.85;;;;;;;;;;5074875;28;20186;-46
2021/08/17 01:13:56;;;;;;;0.95;0.88;;;;;;;;;;5086992;28;20169;-46
2021/08/17 01:16:23;;;;;;;1.02;0.93;;;;;;;;;;5079253;28;20190;-46
2021/08/17 01:18:49;;;;;;;1.02;0.93;;;;;;;;;;5084670;28;20495;-46
2021/08/17 01:21:16;;;;;;;1.15;1.05;;;;;;;;;;5094970;28;20193;-46
2021/08/17 01:23:43;;;;;;;0.90;0.90;;;;;;;;;;5081592;28;20186;-46
2021/08/17 01:26:09;;;;;;;1.67;1.20;;;;;;;;;;5093319;28;20284;-46
2021/08/17 01:28:35;;;;;;;0.85;0.85;;;;;;;;;;5084592;28;20182;-46
2021/08/17 01:31:02;;;;;;;1.05;0.95;;;;;;;;;;5079026;28;20189;-46
2021/08/17 01:33:28;;;;;;;1.23;1.05;;;;;;;;;;5094203;28;20185;-46
2021/08/17 01:35:54;;;;;;;0.95;0.95;;;;;;;;;;5093637;28;20289;-46
2021/08/17 01:38:20;;;;;;;1.40;1.08;;;;;;;;;;5081210;28;20185;-46
2021/08/17 01:40:46;;;;;;;1.05;0.98;;;;;;;;;;5094549;28;20231;-46
2021/08/17 01:43:12;;;;;;;1.38;1.10;;;;;;;;;;5082288;28;20477;-46
2021/08/17 01:45:38;;;;;;;1.15;1.05;;;;;;;;;;5092910;28;20178;-46
2021/08/17 01:48:05;;;;;;;1.23;1.13;;;;;;;;;;5093499;28;20524;-46
2021/08/17 01:50:32;;;;;;;1.05;0.90;;;;;;;;;;5094657;28;20461;-46
2021/08/17 01:52:58;;;;;;;1.30;1.20;;;;;;;;;;5084904;28;20181;-46
2021/08/17 01:55:24;;;;;;;1.60;1.00;;;;;;;;;;5091355;28;20171;-46
2021/08/17 01:57:50;;;;;;;1.30;1.20;;;;;;;;;;5090508;28;20576;-46
2021/08/17 02:00:16;;;;;;;0.90;0.90;;;;;;;;;;5089591;28;20170;-46
2021/08/17 02:02:42;;;;;;;1.45;1.20;;;;;;;;;;5094310;28;20188;-46
2021/08/17 02:05:09;;;;;;;1.10;1.00;;;;;;;;;;5093836;28;20294;-46
2021/08/17 02:07:35;;;;;;;1.08;1.00;;;;;;;;;;5090557;28;20277;-46
2021/08/17 02:10:01;;;;;;;1.13;1.00;;;;;;;;;;5091826;28;20174;-46
2021/08/17 02:12:27;;;;;;;1.20;1.10;;;;;;;;;;5098044;28;20284;-46
2021/08/17 02:14:53;;;;;;;1.20;1.10;;;;;;;;;;5092881;28;20261;-46
2021/08/17 02:17:19;;;;;;;1.15;0.90;;;;;;;;;;5097102;28;20182;-46
2021/08/17 02:19:46;;;;;;;1.10;1.00;;;;;;;;;;5097965;28;20182;-46
2021/08/17 02:22:12;;;;;;;1.00;1.00;;;;;;;;;;5095048;28;20181;-46
2021/08/17 02:24:38;;;;;;;1.23;1.00;;;;;;;;;;5081735;28;20187;-47
2021/08/17 02:27:04;;;;;;;1.10;1.00;;;;;;;;;;5084689;28;20600;-46
2021/08/17 02:29:30;;;;;;;1.05;0.85;;;;;;;;;;5080287;28;20194;-46
2021/08/17 02:31:56;;;;;;;1.10;1.00;;;;;;;;;;5078022;28;20186;-46
2021/08/17 02:34:22;;;;;;;0.93;0.90;;;;;;;;;;5077713;28;20178;-46
2021/08/17 02:36:48;;;;;;;1.00;0.90;;;;;;;;;;5078711;28;20182;-46
2021/08/17 02:39:14;;;;;;;0.98;0.90;;;;;;;;;;5088361;28;20200;-46
2021/08/17 02:41:40;;;;;;;0.93;0.88;;;;;;;;;;5083507;28;20268;-46
2021/08/17 02:44:06;;;;;;;1.73;1.17;;;;;;;;;;5083917;28;20175;-46
2021/08/17 02:46:32;;;;;;;1.17;0.85;;;;;;;;;;5097956;28;20919;-46
2021/08/17 02:48:58;;;;;;;0.98;0.98;;;;;;;;;;5097381;28;20170;-46
2021/08/17 02:51:24;;;;;;;1.20;1.10;;;;;;;;;;5096945;28;20181;-46
2021/08/17 02:53:50;;;;;;;1.10;1.00;;;;;;;;;;5085958;28;20227;-46
2021/08/17 02:56:16;;;;;;;1.33;1.00;;;;;;;;;;5077647;28;20201;-46
2021/08/17 02:58:44;;;;;;;1.13;0.93;;;;;;;;;;5087014;28;20182;-46
2021/08/17 03:01:10;;;;;;;1.20;1.10;;;;;;;;;;5096709;28;20208;-46
2021/08/17 03:03:36;;;;;;;1.15;0.98;;;;;;;;;;5088764;28;20193;-46
2021/08/17 03:06:02;;;;;;;1.38;1.20;;;;;;;;;;5097400;28;20853;-46
2021/08/17 03:08:28;;;;;;;0.98;0.98;;;;;;;;;;5083617;28;20174;-46
2021/08/17 03:10:54;;;;;;;1.25;1.15;;;;;;;;;;5078949;28;20552;-46
2021/08/17 03:13:20;;;;;;;1.15;1.08;;;;;;;;;;5084087;28;20248;-46
2021/08/17 03:15:46;;;;;;;1.30;1.20;;;;;;;;;;5097226;28;20180;-46
2021/08/17 03:18:12;;;;;;;1.05;0.90;;;;;;;;;;5094053;28;20216;-46
2021/08/17 03:20:39;;;;;;;1.27;1.05;;;;;;;;;;5096359;28;20606;-46
2021/08/17 03:23:05;;;;;;;0.98;0.90;;;;;;;;;;5092613;28;20196;-46
2021/08/17 03:25:32;;;;;;;1.08;0.98;;;;;;;;;;5078866;28;20569;-46
2021/08/17 03:27:58;;;;;;;0.80;0.80;;;;;;;;;;5080256;28;20181;-46
2021/08/17 03:30:25;;;;;;;1.10;1.00;;;;;;;;;;5093388;28;20177;-46
2021/08/17 03:32:51;;;;;;;1.20;1.10;;;;;;;;;;5089999;28;20436;-46
2021/08/17 03:35:17;;;;;;;0.77;0.77;;;;;;;;;;5095945;28;20184;-46
2021/08/17 03:37:43;;;;;;;1.30;1.20;;;;;;;;;;5088780;28;20569;-46
2021/08/17 03:40:11;;;;;;;1.00;0.88;;;;;;;;;;5091281;28;20256;-46
2021/08/17 03:42:38;;;;;;;1.25;0.90;;;;;;;;;;5084028;28;20296;-46
2021/08/17 03:45:04;;;;;;;0.95;0.88;;;;;;;;;;5096796;28;20802;-46
2021/08/17 03:47:30;;;;;;;1.55;1.00;;;;;;;;;;5087351;28;20209;-46
2021/08/17 03:49:56;;;;;;;1.60;1.00;;;;;;;;;;5096538;28;20544;-46
2021/08/17 03:52:22;;;;;;;1.48;1.05;;;;;;;;;;5092031;28;20175;-46
2021/08/17 03:54:48;;;;;;;1.10;1.00;;;;;;;;;;5088057;28;20617;-46
2021/08/17 03:57:14;;;;;;;1.23;1.13;;;;;;;;;;5094027;28;20185;-46
2021/08/17 03:59:40;;;;;;;1.05;0.95;;;;;;;;;;5077501;28;20193;-46
2021/08/17 04:02:06;;;;;;;2.20;1.10;;;;;;;;;;5075892;28;20195;-46
2021/08/17 04:04:32;;;;;;;1.60;1.48;;;;;;;;;;5080932;28;20247;-46
2021/08/17 04:06:58;;;;;;;4.60;1.80;;;;;;;;;;5087144;28;20201;-46
2021/08/17 04:09:24;;;;;;;2.13;1.35;;;;;;;;;;5084463;28;20182;-46
2021/08/17 04:11:50;;;;;;;5.88;1.92;;;;;;;;;;5080432;28;20179;-46
2021/08/17 04:14:16;;;;;;;3.20;1.65;;;;;;;;;;5090873;28;20165;-46
2021/08/17 04:16:42;;;;;;;4.30;1.92;;;;;;;;;;5095106;28;20181;-46
2021/08/17 04:19:08;;;;;;;4.15;1.95;;;;;;;;;;5095289;28;20206;-46
2021/08/17 04:21:34;;;;;;;6.22;2.45;;;;;;;;;;5082493;28;20719;-46
2021/08/17 04:24:00;;;;;;;5.68;2.60;;;;;;;;;;5086674;28;20596;-46
2021/08/17 04:26:27;;;;;;;7.72;2.80;;;;;;;;;;5075311;28;20186;-46
2021/08/17 04:28:53;;;;;;;8.85;2.88;;;;;;;;;;5074421;28;20190;-46
2021/08/17 04:31:19;;;;;;;8.95;3.13;;;;;;;;;;5075266;28;20254;-46
2021/08/17 04:33:45;;;;;;;9.20;3.47;;;;;;;;;;5093108;28;20568;-46
2021/08/17 04:36:12;;;;;;;8.35;3.42;;;;;;;;;;5080249;28;20191;-46
2021/08/17 04:38:38;;;;;;;11.63;3.92;;;;;;;;;;5086372;28;20836;-46
2021/08/17 04:41:05;;;;;;;9.10;3.97;;;;;;;;;;5075060;28;20167;-46
2021/08/17 04:43:31;;;;;;;11.30;4.28;;;;;;;;;;5084116;28;20170;-46
2021/08/17 04:45:57;;;;;;;11.15;4.10;;;;;;;;;;5095090;28;20209;-46
2021/08/17 04:48:23;;;;;;;12.63;4.05;;;;;;;;;;5094828;28;20162;-46
2021/08/17 04:50:49;;;;;;;12.63;4.28;;;;;;;;;;5094520;28;20185;-46
2021/08/17 04:53:15;;;;;;;13.90;4.50;;;;;;;;;;5082837;28;20174;-46
2021/08/17 04:55:41;;;;;;;15.70;4.63;;;;;;;;;;5094167;28;20221;-46
2021/08/17 04:58:08;;;;;;;13.60;4.93;;;;;;;;;;5089049;28;20208;-46
2021/08/17 05:00:34;;;;;;;17.00;5.32;;;;;;;;;;5074530;28;20158;-46
2021/08/17 05:03:00;;;;;;;13.38;5.10;;;;;;;;;;5074447;28;20218;-46
2021/08/17 05:05:27;;;;;;;11.85;4.57;;;;;;;;;;5087334;28;20213;-46
2021/08/17 05:07:54;;;;;;;16.80;5.55;;;;;;;;;;5081722;28;20320;-46
2021/08/17 05:10:21;;;;;;;15.10;5.03;;;;;;;;;;5078290;28;20253;-46
2021/08/17 05:12:47;;;;;;;16.15;5.55;;;;;;;;;;5074305;28;20171;-46
2021/08/17 05:15:13;;;;;;;16.10;5.70;;;;;;;;;;5074641;28;20623;-46
2021/08/17 05:17:39;;;;;;;15.85;5.20;;;;;;;;;;5073731;28;20175;-46
2021/08/17 05:20:06;;;;;;;18.02;5.90;;;;;;;;;;5092144;28;20258;-46
2021/08/17 05:22:32;;;;;;;13.48;5.25;;;;;;;;;;5082438;28;20508;-46
2021/08/17 05:24:59;;;;;;;17.80;5.57;;;;;;;;;;5094314;28;20200;-46
2021/08/17 05:27:25;;;;;;;12.77;5.80;;;;;;;;;;5077478;28;20216;-46
2021/08/17 05:29:52;;;;;;;15.35;5.53;;;;;;;;;;5074594;28;20425;-46
2021/08/17 05:32:19;;;;;;;15.32;5.22;;;;;;;;;;5074507;28;20260;-46
2021/08/17 05:34:45;;;;;;;14.70;5.97;;;;;;;;;;5076633;28;20179;-46
2021/08/17 05:37:11;;;;;;;10.85;4.95;;;;;;;;;;5074311;28;20638;-46
2021/08/17 05:39:37;;;;;;;11.48;5.13;;;;;;;;;;5074153;28;20162;-46
2021/08/17 05:42:03;;;;;;;16.65;5.38;;;;;;;;;;5079087;28;20261;-46
2021/08/17 05:44:29;;;;;;;15.75;6.50;;;;;;;;;;5078803;28;20460;-46
2021/08/17 05:46:55;;;;;;;13.50;5.28;;;;;;;;;;5093915;28;20189;-46
2021/08/17 05:49:21;;;;;;;16.25;5.40;;;;;;;;;;5086945;28;20178;-46
2021/08/17 05:51:47;;;;;;;10.95;5.00;;;;;;;;;;5074759;28;20171;-46
2021/08/17 05:54:13;;;;;;;12.10;5.30;;;;;;;;;;5093720;28;20200;-46
2021/08/17 05:56:39;;;;;;;13.10;5.35;;;;;;;;;;5074413;28;20174;-46
2021/08/17 05:59:05;;;;;;;13.07;4.97;;;;;;;;;;5082781;28;20182;-46
2021/08/17 06:01:31;;;;;;;14.05;5.70;;;;;;;;;;5076713;28;20578;-46
2021/08/17 06:03:57;;;;;;;11.63;5.75;;;;;;;;;;5073923;28;20190;-46
2021/08/17 06:06:23;;;;;;;13.77;5.20;;;;;;;;;;5073779;28;20193;-46
2021/08/17 06:08:50;;;;;;;12.00;4.72;;;;;;;;;;5073598;28;20544;-46
2021/08/17 06:11:16;;;;;;;13.18;5.28;;;;;;;;;;5087533;28;20230;-46
2021/08/17 06:13:42;;;;;;;11.13;4.72;;;;;;;;;;5080348;28;20500;-46
2021/08/17 06:16:08;;;;;;;13.10;4.85;;;;;;;;;;5079887;28;20209;-46
2021/08/17 06:18:34;;;;;;;14.43;5.65;;;;;;;;;;5073151;28;20178;-46
2021/08/17 06:21:00;;;;;;;13.30;5.00;;;;;;;;;;5077042;28;20194;-46
2021/08/17 06:23:29;;;;;;;12.32;4.43;;;;;;;;;;5093971;28;20180;-46
2021/08/17 06:25:55;;;;;;;11.27;4.53;;;;;;;;;;5093850;28;20293;-46
2021/08/17 06:28:21;;;;;;;11.18;4.68;;;;;;;;;;5092537;28;20378;-46
2021/08/17 06:30:47;;;;;;;12.75;4.78;;;;;;;;;;5093403;28;20166;-46
2021/08/17 06:33:13;;;;;;;10.02;4.68;;;;;;;;;;5092772;28;20177;-46
2021/08/17 06:35:39;;;;;;;10.23;4.90;;;;;;;;;;5093022;28;20865;-46
2021/08/17 06:38:05;;;;;;;10.10;4.53;;;;;;;;;;5092323;28;20170;-46
2021/08/17 06:40:31;;;;;;;11.13;4.75;;;;;;;;;;5093538;28;20559;-46
2021/08/17 06:42:57;;;;;;;10.10;4.40;;;;;;;;;;5079981;28;20250;-46
2021/08/17 06:45:23;;;;;;;8.18;3.75;;;;;;;;;;5076155;28;20312;-46
2021/08/17 06:47:56;;;;;;;10.35;4.60;;;;;;;;;;5092674;28;20202;-46
2021/08/17 06:50:22;;;;;;;8.90;4.50;;;;;;;;;;5092298;28;20213;-46
2021/08/17 06:52:49;;;;;;;9.10;4.40;;;;;;;;;;5095185;28;20201;-46
2021/08/17 06:55:15;;;;;;;11.60;4.38;;;;;;;;;;5086128;28;20171;-46
2021/08/17 06:57:41;;;;;;;10.93;4.68;;;;;;;;;;5081355;28;20185;-46
2021/08/17 07:00:08;;;;;;;9.07;3.83;;;;;;;;;;5082384;28;20238;-46
2021/08/17 07:02:34;;;;;;;6.35;4.20;;;;;;;;;;5076202;28;20194;-46
2021/08/17 07:05:00;;;;;;;9.77;3.85;;;;;;;;;;5059104;28;20201;-46
2021/08/17 07:07:26;;;;;;;11.43;4.53;;;;;;;;;;5075833;28;20198;-46
2021/08/17 07:09:52;;;;;;;11.18;4.28;;;;;;;;;;5075489;28;20492;-46
2021/08/17 07:12:18;;;;;;;9.63;4.03;;;;;;;;;;5080198;28;20181;-46
2021/08/17 07:14:44;;;;;;;9.50;4.32;;;;;;;;;;5085525;28;20182;-46
2021/08/17 07:17:10;;;;;;;8.93;4.35;;;;;;;;;;5096239;28;20181;-46
2021/08/17 07:19:36;;;;;;;9.13;4.20;;;;;;;;;;5080557;28;20178;-46
2021/08/17 07:22:02;;;;;;;8.23;3.95;;;;;;;;;;5076315;28;20241;-46
2021/08/17 07:24:29;;;;;;;8.98;3.85;;;;;;;;;;5076595;28;20175;-46
2021/08/17 07:26:55;;;;;;;7.72;4.55;;;;;;;;;;5077128;28;20278;-46
2021/08/17 07:29:21;;;;;;;6.95;3.65;;;;;;;;;;5087499;28;20198;-46
2021/08/17 07:31:47;;;;;;;8.68;4.10;;;;;;;;;;5076061;28;20167;-46
2021/08/17 07:34:13;;;;;;;6.88;3.25;;;;;;;;;;5075970;28;20181;-46
2021/08/17 07:36:39;;;;;;;7.35;3.75;;;;;;;;;;5076106;28;20167;-46
2021/08/17 07:39:06;;;;;;;5.95;3.78;;;;;;;;;;5075431;28;20166;-46
2021/08/17 07:41:33;;;;;;;6.22;3.40;;;;;;;;;;5077307;28;20181;-46
2021/08/17 07:43:59;;;;;;;8.20;3.63;;;;;;;;;;5088156;28;20448;-46
2021/08/17 07:46:25;;;;;;;6.35;3.75;;;;;;;;;;5058385;28;20667;-46
2021/08/17 07:48:51;;;;;;;7.25;3.45;;;;;;;;;;5075650;28;20181;-46
2021/08/17 07:51:18;;;;;;;7.13;3.40;;;;;;;;;;5076036;28;20178;-46
2021/08/17 07:53:44;;;;;;;6.53;3.45;;;;;;;;;;5076253;28;20498;-46
2021/08/17 07:56:10;;;;;;;6.53;3.22;;;;;;;;;;5076588;28;20261;-46
2021/08/17 07:58:36;;;;;;;5.38;3.10;;;;;;;;;;5083026;28;20435;-46
2021/08/17 08:01:02;;;;;;;6.72;3.17;;;;;;;;;;5095583;28;20239;-46
2021/08/17 08:03:28;;;;;;;8.25;3.60;;;;;;;;;;5088818;28;20195;-46
2021/08/17 08:05:54;;;;;;;4.10;2.80;;;;;;;;;;5075004;28;20170;-46
2021/08/17 08:08:20;;;;;;;6.32;3.00;;;;;;;;;;5074035;28;20174;-46
2021/08/17 08:10:46;;;;;;;5.60;2.95;;;;;;;;;;5074723;28;20171;-46
2021/08/17 08:13:12;;;;;;;4.88;2.92;;;;;;;;;;5074360;28;20522;-46
2021/08/17 08:15:39;;;;;;;5.28;2.97;;;;;;;;;;5074530;28;20175;-46
2021/08/17 08:18:06;;;;;;;5.57;3.45;;;;;;;;;;5073912;28;20239;-46
2021/08/17 08:20:33;;;;;;;4.97;3.20;;;;;;;;;;5074620;28;20163;-46
2021/08/17 08:22:59;;;;;;;5.15;3.03;;;;;;;;;;5057815;28;20174;-46
2021/08/17 08:25:25;;;;;;;4.85;2.97;;;;;;;;;;5075431;28;20546;-46
2021/08/17 08:27:51;;;;;;;6.47;3.03;;;;;;;;;;5074407;28;20206;-46
2021/08/17 08:30:17;;;;;;;6.22;3.00;;;;;;;;;;5075196;28;20526;-46
2021/08/17 08:32:44;;;;;;;4.75;2.75;;;;;;;;;;5075106;28;20273;-46
2021/08/17 08:35:10;;;;;;;5.47;2.92;;;;;;;;;;5075231;28;20606;-46
2021/08/17 08:37:36;;;;;;;4.38;2.53;;;;;;;;;;5074300;28;20178;-46
2021/08/17 08:40:03;;;;;;;3.92;2.63;;;;;;;;;;5075208;28;20269;-46
2021/08/17 08:42:29;;;;;;;4.32;2.78;;;;;;;;;;5083711;28;20178;-46
2021/08/17 08:44:55;;;;;;;4.05;2.55;;;;;;;;;;5102159;28;20255;-46
2021/08/17 08:47:21;;;;;;;4.70;2.60;;;;;;;;;;5108583;28;20452;-47
2021/08/17 08:49:49;;;;;;;4.45;2.75;;;;;;;;;;5106881;28;20177;-46
2021/08/17 08:52:15;;;;;;;5.05;2.97;;;;;;;;;;5095322;28;20175;-46
2021/08/17 08:54:41;;;;;;;6.22;2.88;;;;;;;;;;5091133;28;20183;-46
2021/08/17 08:57:07;;;;;;;4.47;2.65;;;;;;;;;;5085613;28;20175;-46
2021/08/17 08:59:33;;;;;;;5.30;2.78;;;;;;;;;;5074611;28;20170;-46
2021/08/17 09:02:09;;;;;;;4.70;2.50;;;;;;;;;;5087523;28;20181;-46
2021/08/17 09:04:35;;;;;;;2.90;2.13;;;;;;;;;;5090661;28;20607;-46
2021/08/17 09:07:01;;;;;;;4.28;2.90;;;;;;;;;;5074572;28;20202;-46
2021/08/17 09:09:29;;;;;;;4.00;2.83;;;;;;;;;;5074300;28;20241;-46
2021/08/17 09:11:55;;;;;;;4.20;2.80;;;;;;;;;;5074538;28;20572;-46
2021/08/17 09:14:31;;;;;;;3.03;2.22;;;;;;;;;;5090246;28;20178;-46
2021/08/17 09:16:59;;;;;;;5.20;2.50;;;;;;;;;;5081291;28;20461;-46
2021/08/17 09:19:25;;;;;;;3.42;2.38;;;;;;;;;;5084771;28;20580;-46
2021/08/17 09:21:51;;;;;;;3.42;2.22;;;;;;;;;;5076323;28;20201;-46
2021/08/17 09:24:26;;;;;;;3.53;2.30;;;;;;;;;;5074133;28;20669;-46
2021/08/17 09:26:57;;;;;;;4.05;2.28;;;;;;;;;;5078678;28;20202;-46
2021/08/17 09:29:27;;;;;;;3.95;2.47;;;;;;;;;;5089305;28;20193;-46
2021/08/17 09:31:54;;;;;;;4.75;2.35;;;;;;;;;;5086515;28;20234;-47
2021/08/17 09:34:24;;;;;;;4.55;2.45;;;;;;;;;;5084381;28;20189;-46
2021/08/17 09:36:50;;;;;;;3.45;2.17;;;;;;;;;;5092173;28;20422;-46
2021/08/17 09:39:46;;;;;;;4.47;2.58;;;;;;;;;;5089357;28;20216;-48
2021/08/17 09:42:12;;;;;;;4.15;2.47;;;;;;;;;;5076180;28;20209;-46
2021/08/17 09:44:39;;;;;;;4.43;2.10;;;;;;;;;;5094452;28;20507;-47
2021/08/17 09:47:05;;;;;;;4.72;2.38;;;;;;;;;;5075705;28;20204;-47
2021/08/17 09:49:32;;;;;;;3.15;2.05;;;;;;;;;;5089316;28;20443;-47
2021/08/17 09:51:59;;;;;;;3.50;2.25;;;;;;;;;;5073451;28;20243;-47
2021/08/17 09:54:28;;;;;;;3.35;2.50;;;;;;;;;;5072493;28;20261;-47
2021/08/17 09:56:58;;;;;;;2.97;2.05;;;;;;;;;;5071891;28;20174;-46
2021/08/17 09:59:25;;;;;;;4.28;2.22;;;;;;;;;;5077602;28;20227;-46
2021/08/17 10:01:51;;;;;;;4.00;2.17;;;;;;;;;;5092263;28;20180;-46
2021/08/17 10:04:18;;;;;;;3.70;1.95;;;;;;;;;;5082625;28;20182;-46
2021/08/17 10:06:44;;;;;;;4.97;2.03;;;;;;;;;;5091377;28;20594;-46
2021/08/17 10:09:14;;;;;;;4.18;2.55;;;;;;;;;;5089853;28;20184;-46
2021/08/17 10:11:40;;;;;;;4.00;2.30;;;;;;;;;;5073907;28;20171;-46
2021/08/17 10:14:06;;;;;;;3.95;2.42;;;;;;;;;;5073666;28;20198;-46
2021/08/17 10:16:33;;;;;;;3.70;1.92;;;;;;;;;;5074708;28;20209;-46
2021/08/17 10:18:59;;;;;;;2.83;1.80;;;;;;;;;;5080101;28;20182;-46
2021/08/17 10:21:26;;;;;;;3.22;2.45;;;;;;;;;;5079233;28;20182;-46
2021/08/17 10:23:52;;;;;;;3.47;1.98;;;;;;;;;;5073833;28;20198;-46
2021/08/17 10:26:29;;;;;;;2.50;1.90;;;;;;;;;;5074332;28;20288;-46
2021/08/17 10:28:55;;;;;;;4.05;2.03;;;;;;;;;;5076937;28;20186;-46
2021/08/17 10:31:22;;;;;;;2.35;2.05;;;;;;;;;;5077717;28;20179;-46
2021/08/17 10:33:52;;;;;;;3.88;2.20;;;;;;;;;;5083038;28;20205;-46
2021/08/17 10:36:32;;;;;;;4.47;2.20;;;;;;;;;;5066542;28;20170;-46
2021/08/17 10:38:58;;;;;;;3.28;2.00;;;;;;;;;;5076853;28;20175;-46
2021/08/17 10:41:26;;;;;;;4.00;2.13;;;;;;;;;;5081133;28;20534;-46
2021/08/17 10:43:52;;;;;;;2.75;2.08;;;;;;;;;;5097445;28;20166;-46
2021/08/17 10:46:18;;;;;;;2.97;2.00;;;;;;;;;;5097711;28;20457;-47
2021/08/17 10:48:48;;;;;;;2.35;1.70;;;;;;;;;;5092329;28;20446;-46
2021/08/17 10:51:23;;;;;;;3.80;2.40;;;;;;;;;;5084404;28;20178;-47
2021/08/17 10:53:53;;;;;;;2.28;1.77;;;;;;;;;;5076958;28;20245;-47
2021/08/17 10:56:22;;;;;;;4.75;1.98;;;;;;;;;;5059626;28;20185;-46
2021/08/17 10:58:53;;;;;;;2.78;2.03;;;;;;;;;;5076621;28;20268;-46
2021/08/17 11:01:32;;;;;;;2.33;2.03;;;;;;;;;;5080750;28;20453;-46
2021/08/17 11:03:59;;;;;;;3.95;2.10;;;;;;;;;;5089918;28;20198;-46
2021/08/17 11:06:37;;;;;;;2.92;1.50;;;;;;;;;;5091256;28;20554;-46
2021/08/17 11:09:07;;;;;;;2.72;2.10;;;;;;;;;;5093769;28;20165;-46
2021/08/17 11:11:33;;;;;;;3.33;2.10;;;;;;;;;;5081727;28;20165;-46
2021/08/17 11:14:07;;;;;;;2.20;1.75;;;;;;;;;;5097045;28;20450;-46
2021/08/17 11:16:33;;;;;;;2.78;1.95;;;;;;;;;;5091893;28;20184;-46
2021/08/17 11:19:00;;;;;;;3.20;2.03;;;;;;;;;;5082801;28;20192;-46
2021/08/17 11:21:30;;;;;;;3.00;1.75;;;;;;;;;;5082107;28;20182;-46
2021/08/17 11:24:15;;;;;;;3.70;2.20;;;;;;;;;;5076599;28;20175;-46
2021/08/17 11:26:42;;;;;;;2.55;1.60;;;;;;;;;;5076446;28;20581;-46
2021/08/17 11:29:09;;;;;;;3.13;1.98;;;;;;;;;;5075667;28;20186;-46
2021/08/17 11:31:44;;;;;;;3.17;2.00;;;;;;;;;;5103842;28;20183;-46
2021/08/17 11:34:11;;;;;;;2.78;1.80;;;;;;;;;;5099960;28;20189;-46
2021/08/17 11:36:37;;;;;;;2.70;1.67;;;;;;;;;;5080127;28;20231;-46
2021/08/17 11:39:19;;;;;;;2.20;1.80;;;;;;;;;;5074509;28;20534;-46
2021/08/17 11:41:45;;;;;;;2.97;2.00;;;;;;;;;;5082689;28;20190;-46
2021/08/17 11:44:14;;;;;;;2.75;1.83;;;;;;;;;;5096457;28;20212;-46
2021/08/17 11:46:40;;;;;;;2.45;1.98;;;;;;;;;;5105674;28;20538;-46
2021/08/17 11:49:23;;;;;;;2.83;1.85;;;;;;;;;;5099700;28;20281;-46
2021/08/17 11:52:06;;;;;;;2.50;1.75;;;;;;;;;;5060549;28;20178;-46
2021/08/17 11:54:33;;;;;;;1.90;1.70;;;;;;;;;;5075804;28;20197;-46
2021/08/17 11:57:01;;;;;;;3.22;2.00;;;;;;;;;;5075514;28;20197;-46
2021/08/17 11:59:40;;;;;;;2.35;1.85;;;;;;;;;;5075842;28;20215;-46
2021/08/17 12:02:06;;;;;;;3.15;2.35;;;;;;;;;;5075936;28;20253;-46
2021/08/17 12:04:32;;;;;;;2.13;1.90;;;;;;;;;;5079572;28;20190;-46
2021/08/17 12:07:08;;;;;;;2.75;1.75;;;;;;;;;;5094314;28;20208;-47
2021/08/17 12:09:35;;;;;;;2.42;1.98;;;;;;;;;;5088801;28;20188;-46
2021/08/17 12:12:01;;;;;;;2.53;2.00;;;;;;;;;;5075834;28;20186;-46
2021/08/17 12:14:27;;;;;;;2.20;1.80;;;;;;;;;;5075765;28;20198;-46
2021/08/17 12:16:54;;;;;;;1.95;1.70;;;;;;;;;;5081235;28;20216;-46
2021/08/17 12:19:20;;;;;;;3.38;2.10;;;;;;;;;;5084679;28;20234;-46
2021/08/17 12:21:47;;;;;;;2.22;1.95;;;;;;;;;;5078353;28;20182;-46
2021/08/17 12:24:30;;;;;;;2.75;1.90;;;;;;;;;;5075620;28;20457;-46
2021/08/17 12:27:05;;;;;;;3.05;2.00;;;;;;;;;;5074988;28;20186;-46
2021/08/17 12:29:41;;;;;;;2.83;1.95;;;;;;;;;;5074924;28;20277;-45
2021/08/17 12:32:17;;;;;;;2.28;1.73;;;;;;;;;;5075321;28;20207;-45
2021/08/17 12:34:44;;;;;;;2.30;1.83;;;;;;;;;;5087717;28;20227;-46
2021/08/17 12:37:24;;;;;;;2.22;1.90;;;;;;;;;;5074766;28;20215;-46
2021/08/17 12:39:54;;;;;;;2.58;2.00;;;;;;;;;;5074996;28;20175;-46
2021/08/17 12:42:20;;;;;;;2.92;2.15;;;;;;;;;;5086571;28;20174;-46
2021/08/17 12:44:48;;;;;;;2.70;2.22;;;;;;;;;;5095575;28;20243;-46
2021/08/17 12:47:19;;;;;;;2.45;1.92;;;;;;;;;;5094150;28;20205;-46
2021/08/17 12:49:45;;;;;;;2.00;1.80;;;;;;;;;;5081797;28;20474;-46
2021/08/17 12:52:17;;;;;;;1.50;1.40;;;;;;;;;;5095333;28;20162;-46
2021/08/17 12:54:43;;;;;;;2.47;1.60;;;;;;;;;;5086755;28;20167;-46
2021/08/17 12:57:09;;;;;;;2.97;1.75;;;;;;;;;;5074383;28;20185;-46
2021/08/17 12:59:36;;;;;;;3.40;2.20;;;;;;;;;;5074616;28;20177;-46
2021/08/17 13:02:02;;;;;;;2.30;1.85;;;;;;;;;;5074830;28;20285;-46
2021/08/17 13:04:28;;;;;;;2.47;1.75;;;;;;;;;;5085357;28;20576;-46
2021/08/17 13:06:54;;;;;;;2.38;1.73;;;;;;;;;;5083617;28;20203;-46
2021/08/17 13:09:20;;;;;;;1.90;1.67;;;;;;;;;;5084931;28;20614;-46
2021/08/17 13:11:46;;;;;;;3.22;2.10;;;;;;;;;;5085580;28;20200;-46
2021/08/17 13:14:13;;;;;;;2.92;1.80;;;;;;;;;;5073778;28;20182;-46
2021/08/17 13:16:38;;;;;;;1.92;1.73;;;;;;;;;;5076510;28;20263;-46
2021/08/17 13:19:05;;;;;;;3.13;2.13;;;;;;;;;;5081688;28;20499;-46
2021/08/17 13:21:31;;;;;;;3.88;2.13;;;;;;;;;;5093448;28;20444;-46
2021/08/17 13:23:57;;;;;;;4.47;2.95;;;;;;;;;;5079412;28;20182;-46
2021/08/17 13:26:23;;;;;;;4.00;2.70;;;;;;;;;;5093528;28;20189;-46
2021/08/17 13:28:49;;;;;;;3.33;2.50;;;;;;;;;;5078667;28;20292;-46
2021/08/17 13:31:15;;;;;;;3.30;2.75;;;;;;;;;;5074600;28;20207;-47
2021/08/17 13:33:41;;;;;;;4.63;3.25;;;;;;;;;;5092623;28;20289;-46
2021/08/17 13:36:07;;;;;;;3.78;3.08;;;;;;;;;;5075445;28;20261;-46
2021/08/17 13:38:34;;;;;;;5.45;3.63;;;;;;;;;;5075467;28;20178;-46
2021/08/17 13:41:00;;;;;;;25.52;3.97;;;;;;;;;;5086621;28;20182;-47
2021/08/17 13:43:26;;;;;;;21.98;4.22;;;;;;;;;;5086929;28;20188;-46
2021/08/17 13:45:54;;;;;;;14.15;4.13;;;;;;;;;;5105653;28;20659;-46
2021/08/17 13:48:21;;;;;;;7.57;4.03;;;;;;;;;;5078334;28;20292;-46
2021/08/17 13:50:46;;;;;;;7.35;3.78;;;;;;;;;;5081531;28;20562;-46
2021/08/17 13:53:13;;;;;;;7.45;3.78;;;;;;;;;;5091214;28;20185;-46
2021/08/17 13:55:39;;;;;;;4.75;3.67;;;;;;;;;;5088448;28;20182;-46
2021/08/17 13:58:04;;;;;;;6.05;3.72;;;;;;;;;;5081504;28;20568;-46
2021/08/17 14:00:31;;;;;;;8.23;3.60;;;;;;;;;;5073749;28;20243;-46
2021/08/17 14:02:57;;;;;;;4.55;3.65;;;;;;;;;;5096708;28;20181;-46
2021/08/17 14:05:23;;;;;;;4.72;3.60;;;;;;;;;;5088522;28;20187;-46
2021/08/17 14:07:49;;;;;;;7.32;4.10;;;;;;;;;;5076821;28;20202;-46
2021/08/17 14:10:15;;;;;;;6.32;4.03;;;;;;;;;;5081331;28;20663;-46
2021/08/17 14:12:41;;;;;;;4.35;3.53;;;;;;;;;;5088648;28;20178;-46
2021/08/17 14:15:07;;;;;;;7.25;3.95;;;;;;;;;;5081701;28;20186;-46
2021/08/17 14:17:33;;;;;;;7.78;4.00;;;;;;;;;;5081956;28;20189;-46
2021/08/17 14:19:59;;;;;;;12.13;4.72;;;;;;;;;;5081491;28;20235;-46
2021/08/17 14:22:25;;;;;;;9.35;4.28;;;;;;;;;;5096432;28;20174;-46
2021/08/17 14:24:51;;;;;;;8.45;3.75;;;;;;;;;;5080773;28;20194;-46
2021/08/17 14:27:17;;;;;;;7.72;4.32;;;;;;;;;;5083176;28;20651;-46
2021/08/17 14:29:43;;;;;;;8.43;4.13;;;;;;;;;;5093860;28;20183;-46
2021/08/17 14:32:09;;;;;;;9.10;4.10;;;;;;;;;;5102894;28;20181;-46
2021/08/17 14:34:36;;;;;;;7.43;3.85;;;;;;;;;;5087987;28;20194;-46
2021/08/17 14:37:04;;;;;;;6.28;3.65;;;;;;;;;;5075591;28;20170;-46
2021/08/17 14:39:31;;;;;;;5.95;3.72;;;;;;;;;;5088035;28;20269;-46